Big Pine Key, FL (33043)

11:41 PM EDT on June 02, 2015 (GMT -0400)
RAWS | | Change Station
CLOSE
Current Station
Personal Weather Station
Location: Summerland Key, FL
Elevation: 9 ft
Nearby Weather Stations

Elev 9 ft 24.72 °N, 81.39 °W | Updated 1 hour ago

Overcast
Overcast
73 °F
Feels Like 73 °F
N
5
Wind Variable Wind from SE
Gusts 11.0 mph

Today
High -- | Low -- °F
--% Chance of Precip.
Yesterday
High -- | Low -- °F
Precip. -- in
6:36 AM 8:10 PM
Full, 100% visible
Pressure 29.96 in
Visibility 10.0 miles
Clouds Few 1900 ft
Few 3600 ft
Overcast 4700 ft
Heat Index 73 °F
Dew Point 66 °F
Humidity 79%
Rainfall in
Snow Depth Not available.
UV 0 out of 12
Pollen .50 out of 12
Air Quality Not available.
Flu Activity Sporadic
METAR KNQX 030253Z 11014KT 10SM FEW019 FEW036 OVC047 24/19 A2996 RMK AO2 SLP145 T02440189 51004

More Conditions Fewer Conditions

Pressure 29.96 in
Visibility 10.0 miles
Clouds Few 1900 ft
Few 3600 ft
Overcast 4700 ft
Heat Index 73 °F
Dew Point 66 °F
Humidity 79%
Rainfall in
Snow Depth Not available.
UV 0 out of 12
Pollen .50 out of 12
Air Quality Not available.
Flu Activity Sporadic
METAR KNQX 030253Z 11014KT 10SM FEW019 FEW036 OVC047 24/19 A2996 RMK AO2 SLP145 T02440189 51004

More Conditions Fewer Conditions

10-Day Weather Forecast

×

Almanac

Astronomy

Jun. 02, 2015 Rise Set
Actual Time
Civil Twilight
Nautical Twilight
Astronomical Twilight
Moon
Length of Visible Light
Length of Day
Tomorrow will be .
, % of the Moon is Illuminated

Today's Extremes

State Highs State Lows

Community

WunderPhotos

Upload Photos

1,826,138 photos uploaded!

WunderBlogs® & News

Nearby

Air Quality

  Air Quality AQ Index Pollutant
Not available.

Snow Depth

Station Depth Elevation

Earthquake Activity

City Distance Mag. Time & Date
Minimum magnitude displayed is 2.5.

Coastal Water Temperatures

Place Temperature

Stations

Nearby Weather Stations

Station Location Temp. Windchill Dew Point Humidity Wind Precip. Elev Updated Type